sensor_id;sensor_type;location;lat;lon;timestamp;pressure;altitude;pressure_sealevel;temperature;humidity
73551;BME280;61816;53.582;10.096;2022-12-07T00:01:27;100937.75;;;3.46;100.00
73551;BME280;61816;53.582;10.096;2022-12-07T00:03:56;100917.25;;;3.21;100.00
73551;BME280;61816;53.582;10.096;2022-12-07T00:06:32;100927.09;;;3.34;100.00
73551;BME280;61816;53.582;10.096;2022-12-07T00:08:58;100915.53;;;3.33;100.00
73551;BME280;61816;53.582;10.096;2022-12-07T00:11:24;100910.75;;;3.49;100.00
73551;BME280;61816;53.582;10.096;2022-12-07T00:13:54;100903.81;;;3.71;100.00
73551;BME280;61816;53.582;10.096;2022-12-07T00:16:22;100901.31;;;3.57;100.00
73551;BME280;61816;53.582;10.096;2022-12-07T00:18:48;100902.81;;;3.61;100.00
73551;BME280;61816;53.582;10.096;2022-12-07T00:21:19;100888.91;;;3.56;100.00
73551;BME280;61816;53.582;10.096;2022-12-07T00:23:46;100884.19;;;3.59;100.00
73551;BME280;61816;53.582;10.096;2022-12-07T00:26:15;100872.13;;;3.65;100.00
73551;BME280;61816;53.582;10.096;2022-12-07T00:28:41;100879.38;;;3.51;100.00
73551;BME280;61816;53.582;10.096;2022-12-07T00:31:11;100884.00;;;3.49;100.00
73551;BME280;61816;53.582;10.096;2022-12-07T00:33:37;100884.38;;;3.56;100.00
73551;BME280;61816;53.582;10.096;2022-12-07T00:36:08;100871.25;;;3.53;100.00
73551;BME280;61816;53.582;10.096;2022-12-07T00:38:36;100873.06;;;3.52;100.00
73551;BME280;61816;53.582;10.096;2022-12-07T00:41:08;100872.63;;;3.59;100.00
73551;BME280;61816;53.582;10.096;2022-12-07T00:43:34;100867.47;;;3.56;100.00
73551;BME280;61816;53.582;10.096;2022-12-07T00:45:59;100868.97;;;3.60;100.00
73551;BME280;61816;53.582;10.096;2022-12-07T00:48:25;100867.03;;;3.62;100.00
73551;BME280;61816;53.582;10.096;2022-12-07T00:50:50;100857.22;;;3.49;100.00
73551;BME280;61816;53.582;10.096;2022-12-07T00:53:16;100857.94;;;3.51;100.00
73551;BME280;61816;53.582;10.096;2022-12-07T00:55:42;100854.94;;;3.56;100.00
73551;BME280;61816;53.582;10.096;2022-12-07T00:58:08;100851.13;;;3.47;100.00
73551;BME280;61816;53.582;10.096;2022-12-07T01:00:35;100838.22;;;3.41;100.00
73551;BME280;61816;53.582;10.096;2022-12-07T01:03:02;100835.81;;;3.49;100.00
73551;BME280;61816;53.582;10.096;2022-12-07T01:05:27;100839.66;;;3.45;100.00
73551;BME280;61816;53.582;10.096;2022-12-07T01:07:52;100835.22;;;3.57;100.00
73551;BME280;61816;53.582;10.096;2022-12-07T01:10:18;100843.66;;;3.64;100.00
73551;BME280;61816;53.582;10.096;2022-12-07T01:12:43;100837.81;;;3.59;100.00
73551;BME280;61816;53.582;10.096;2022-12-07T01:15:09;100838.16;;;3.54;100.00
73551;BME280;61816;53.582;10.096;2022-12-07T01:17:34;100830.91;;;3.43;100.00
73551;BME280;61816;53.582;10.096;2022-12-07T01:20:01;100824.38;;;3.47;100.00
73551;BME280;61816;53.582;10.096;2022-12-07T01:22:27;100825.09;;;3.49;100.00
73551;BME280;61816;53.582;10.096;2022-12-07T01:24:52;100829.53;;;3.62;100.00
73551;BME280;61816;53.582;10.096;2022-12-07T01:27:18;100821.78;;;3.70;100.00
73551;BME280;61816;53.582;10.096;2022-12-07T01:29:43;100830.28;;;3.64;100.00
73551;BME280;61816;53.582;10.096;2022-12-07T01:32:08;100820.78;;;3.60;100.00
73551;BME280;61816;53.582;10.096;2022-12-07T01:34:34;100821.06;;;3.44;100.00
73551;BME280;61816;53.582;10.096;2022-12-07T01:36:59;100827.25;;;3.44;100.00
73551;BME280;61816;53.582;10.096;2022-12-07T01:39:24;100830.97;;;3.54;100.00
73551;BME280;61816;53.582;10.096;2022-12-07T01:41:50;100833.84;;;3.51;100.00
73551;BME280;61816;53.582;10.096;2022-12-07T01:44:30;100829.34;;;3.52;100.00
73551;BME280;61816;53.582;10.096;2022-12-07T01:47:03;100813.38;;;3.39;100.00
73551;BME280;61816;53.582;10.096;2022-12-07T01:52:22;100824.50;;;3.46;100.00
73551;BME280;61816;53.582;10.096;2022-12-07T01:54:51;100820.00;;;3.46;100.00
73551;BME280;61816;53.582;10.096;2022-12-07T01:57:19;100814.91;;;3.31;100.00
73551;BME280;61816;53.582;10.096;2022-12-07T01:59:47;100822.81;;;3.32;100.00
73551;BME280;61816;53.582;10.096;2022-12-07T02:02:19;100826.44;;;3.31;100.00
73551;BME280;61816;53.582;10.096;2022-12-07T02:04:45;100820.09;;;3.21;100.00
73551;BME280;61816;53.582;10.096;2022-12-07T02:07:11;100820.09;;;3.21;100.00
73551;BME280;61816;53.582;10.096;2022-12-07T02:09:37;100812.59;;;3.26;100.00
73551;BME280;61816;53.582;10.096;2022-12-07T02:12:02;100810.44;;;3.18;100.00
73551;BME280;61816;53.582;10.096;2022-12-07T02:14:28;100808.09;;;3.26;100.00
73551;BME280;61816;53.582;10.096;2022-12-07T02:17:04;100805.28;;;3.28;100.00
73551;BME280;61816;53.582;10.096;2022-12-07T02:20:00;100810.03;;;3.12;100.00
73551;BME280;61816;53.582;10.096;2022-12-07T02:23:01;100814.06;;;3.30;100.00
73551;BME280;61816;53.582;10.096;2022-12-07T02:25:55;100820.94;;;3.21;100.00
73551;BME280;61816;53.582;10.096;2022-12-07T02:28:33;100813.94;;;3.08;100.00
73551;BME280;61816;53.582;10.096;2022-12-07T02:31:09;100806.63;;;3.10;100.00
73551;BME280;61816;53.582;10.096;2022-12-07T02:33:42;100807.44;;;3.23;100.00
73551;BME280;61816;53.582;10.096;2022-12-07T02:36:33;100802.13;;;3.10;100.00
73551;BME280;61816;53.582;10.096;2022-12-07T02:39:08;100805.75;;;3.22;100.00
73551;BME280;61816;53.582;10.096;2022-12-07T02:41:43;100805.94;;;3.19;100.00
73551;BME280;61816;53.582;10.096;2022-12-07T02:44:18;100802.53;;;3.17;100.00
73551;BME280;61816;53.582;10.096;2022-12-07T02:47:12;100800.84;;;3.16;100.00
73551;BME280;61816;53.582;10.096;2022-12-07T02:49:40;100801.94;;;3.13;100.00
73551;BME280;61816;53.582;10.096;2022-12-07T02:52:08;100800.84;;;3.16;100.00
73551;BME280;61816;53.582;10.096;2022-12-07T02:54:34;100801.81;;;3.15;100.00
73551;BME280;61816;53.582;10.096;2022-12-07T03:00:11;100818.47;;;2.94;100.00
73551;BME280;61816;53.582;10.096;2022-12-07T03:08:15;100814.81;;;2.95;100.00
73551;BME280;61816;53.582;10.096;2022-12-07T03:11:08;100812.47;;;2.91;100.00
73551;BME280;61816;53.582;10.096;2022-12-07T03:13:56;100810.34;;;2.83;100.00
73551;BME280;61816;53.582;10.096;2022-12-07T03:16:28;100806.25;;;2.90;100.00
73551;BME280;61816;53.582;10.096;2022-12-07T03:18:59;100809.66;;;2.92;100.00
73551;BME280;61816;53.582;10.096;2022-12-07T03:21:31;100803.28;;;2.82;100.00
73551;BME280;61816;53.582;10.096;2022-12-07T03:23:59;100800.09;;;2.77;100.00
73551;BME280;61816;53.582;10.096;2022-12-07T03:26:31;100807.38;;;2.75;100.00
73551;BME280;61816;53.582;10.096;2022-12-07T03:29:02;100804.59;;;2.64;100.00
73551;BME280;61816;53.582;10.096;2022-12-07T03:31:38;100806.84;;;2.70;100.00
73551;BME280;61816;53.582;10.096;2022-12-07T03:34:11;100806.53;;;2.62;100.00
73551;BME280;61816;53.582;10.096;2022-12-07T03:36:53;100809.94;;;2.64;100.00
73551;BME280;61816;53.582;10.096;2022-12-07T03:39:29;100814.88;;;2.57;100.00
73551;BME280;61816;53.582;10.096;2022-12-07T03:41:57;100815.41;;;2.50;100.00
73551;BME280;61816;53.582;10.096;2022-12-07T03:44:24;100811.34;;;2.57;100.00
73551;BME280;61816;53.582;10.096;2022-12-07T03:49:45;100813.06;;;2.45;100.00
73551;BME280;61816;53.582;10.096;2022-12-07T03:57:30;100811.47;;;2.42;100.00
73551;BME280;61816;53.582;10.096;2022-12-07T04:00:00;100805.16;;;2.43;100.00
73551;BME280;61816;53.582;10.096;2022-12-07T04:02:27;100811.03;;;2.49;100.00
73551;BME280;61816;53.582;10.096;2022-12-07T04:04:55;100820.66;;;2.38;100.00
73551;BME280;61816;53.582;10.096;2022-12-07T04:07:20;100817.44;;;2.33;100.00
73551;BME280;61816;53.582;10.096;2022-12-07T04:09:46;100817.25;;;2.36;100.00
73551;BME280;61816;53.582;10.096;2022-12-07T04:12:11;100823.00;;;2.30;100.00
73551;BME280;61816;53.582;10.096;2022-12-07T04:14:37;100821.50;;;2.26;100.00
73551;BME280;61816;53.582;10.096;2022-12-07T04:17:02;100818.53;;;2.31;100.00
73551;BME280;61816;53.582;10.096;2022-12-07T04:19:33;100812.19;;;2.19;100.00
73551;BME280;61816;53.582;10.096;2022-12-07T04:22:01;100820.22;;;2.19;100.00
73551;BME280;61816;53.582;10.096;2022-12-07T04:24:27;100810.63;;;2.16;100.00
73551;BME280;61816;53.582;10.096;2022-12-07T04:26:53;100807.59;;;2.21;100.00
73551;BME280;61816;53.582;10.096;2022-12-07T04:29:19;100820.44;;;2.16;100.00
73551;BME280;61816;53.582;10.096;2022-12-07T04:31:45;100819.13;;;2.22;100.00
73551;BME280;61816;53.582;10.096;2022-12-07T04:34:11;100825.56;;;2.19;100.00
73551;BME280;61816;53.582;10.096;2022-12-07T04:36:37;100825.56;;;2.19;100.00
73551;BME280;61816;53.582;10.096;2022-12-07T04:39:03;100824.38;;;2.10;100.00
73551;BME280;61816;53.582;10.096;2022-12-07T04:41:29;100824.69;;;2.06;100.00
73551;BME280;61816;53.582;10.096;2022-12-07T04:43:56;100827.78;;;2.00;100.00
73551;BME280;61816;53.582;10.096;2022-12-07T04:46:25;100826.75;;;2.02;100.00
73551;BME280;61816;53.582;10.096;2022-12-07T04:48:52;100832.94;;;2.03;100.00
73551;BME280;61816;53.582;10.096;2022-12-07T04:51:28;100824.06;;;2.02;100.00
73551;BME280;61816;53.582;10.096;2022-12-07T04:53:55;100828.00;;;1.97;100.00
73551;BME280;61816;53.582;10.096;2022-12-07T04:56:21;100825.09;;;2.00;100.00
73551;BME280;61816;53.582;10.096;2022-12-07T04:58:47;100828.88;;;2.10;100.00
73551;BME280;61816;53.582;10.096;2022-12-07T05:01:14;100828.47;;;2.16;100.00
73551;BME280;61816;53.582;10.096;2022-12-07T05:03:40;100822.56;;;2.11;100.00
73551;BME280;61816;53.582;10.096;2022-12-07T05:06:06;100824.16;;;2.01;100.00
73551;BME280;61816;53.582;10.096;2022-12-07T05:08:32;100822.84;;;1.94;100.00
73551;BME280;61816;53.582;10.096;2022-12-07T05:10:58;100816.34;;;1.98;100.00
73551;BME280;61816;53.582;10.096;2022-12-07T05:13:23;100820.63;;;2.13;100.00
73551;BME280;61816;53.582;10.096;2022-12-07T05:15:49;100829.47;;;2.01;100.00
73551;BME280;61816;53.582;10.096;2022-12-07T05:18:15;100824.91;;;2.03;100.00
73551;BME280;61816;53.582;10.096;2022-12-07T05:20:41;100821.91;;;2.20;100.00
73551;BME280;61816;53.582;10.096;2022-12-07T05:23:06;100820.00;;;2.09;100.00
73551;BME280;61816;53.582;10.096;2022-12-07T05:25:32;100819.78;;;2.12;100.00
73551;BME280;61816;53.582;10.096;2022-12-07T05:27:57;100816.50;;;2.09;100.00
73551;BME280;61816;53.582;10.096;2022-12-07T05:30:24;100814.00;;;2.06;100.00
73551;BME280;61816;53.582;10.096;2022-12-07T05:32:50;100821.06;;;2.07;100.00
73551;BME280;61816;53.582;10.096;2022-12-07T05:35:16;100811.31;;;1.93;100.00
73551;BME280;61816;53.582;10.096;2022-12-07T05:37:41;100814.84;;;1.94;100.00
73551;BME280;61816;53.582;10.096;2022-12-07T05:40:07;100820.41;;;1.90;100.00
73551;BME280;61816;53.582;10.096;2022-12-07T05:42:33;100814.44;;;2.00;100.00
73551;BME280;61816;53.582;10.096;2022-12-07T05:44:58;100824.44;;;1.83;100.00
73551;BME280;61816;53.582;10.096;2022-12-07T05:47:23;100821.84;;;2.09;100.00
73551;BME280;61816;53.582;10.096;2022-12-07T05:49:49;100821.91;;;2.07;100.00
73551;BME280;61816;53.582;10.096;2022-12-07T05:52:14;100824.50;;;2.09;100.00
73551;BME280;61816;53.582;10.096;2022-12-07T05:54:40;100824.06;;;2.02;100.00
73551;BME280;61816;53.582;10.096;2022-12-07T05:57:05;100821.28;;;2.04;100.00
73551;BME280;61816;53.582;10.096;2022-12-07T05:59:31;100815.28;;;2.13;100.00
73551;BME280;61816;53.582;10.096;2022-12-07T06:01:58;100815.72;;;2.07;100.00
73551;BME280;61816;53.582;10.096;2022-12-07T06:04:27;100813.59;;;2.12;100.00
73551;BME280;61816;53.582;10.096;2022-12-07T06:06:53;100817.66;;;2.05;100.00
73551;BME280;61816;53.582;10.096;2022-12-07T06:09:20;100812.75;;;2.11;100.00
73551;BME280;61816;53.582;10.096;2022-12-07T06:11:47;100818.06;;;1.99;100.00
73551;BME280;61816;53.582;10.096;2022-12-07T06:14:31;100810.19;;;2.10;100.00
73551;BME280;61816;53.582;10.096;2022-12-07T06:16:57;100814.03;;;2.31;100.00
73551;BME280;61816;53.582;10.096;2022-12-07T06:19:23;100811.47;;;2.17;100.00
73551;BME280;61816;53.582;10.096;2022-12-07T06:21:48;100815.28;;;2.13;100.00
73551;BME280;61816;53.582;10.096;2022-12-07T06:24:15;100809.97;;;2.13;100.00
73551;BME280;61816;53.582;10.096;2022-12-07T06:26:41;100814.69;;;2.22;100.00
73551;BME280;61816;53.582;10.096;2022-12-07T06:29:07;100806.75;;;2.33;100.00
73551;BME280;61816;53.582;10.096;2022-12-07T06:31:32;100810.19;;;2.23;100.00
73551;BME280;61816;53.582;10.096;2022-12-07T06:34:08;100810.81;;;2.26;100.00
73551;BME280;61816;53.582;10.096;2022-12-07T06:36:33;100816.59;;;2.20;100.00
73551;BME280;61816;53.582;10.096;2022-12-07T06:38:59;100816.38;;;2.23;100.00
73551;BME280;61816;53.582;10.096;2022-12-07T06:41:24;100809.34;;;2.22;100.00
73551;BME280;61816;53.582;10.096;2022-12-07T06:43:50;100808.25;;;2.12;100.00
73551;BME280;61816;53.582;10.096;2022-12-07T06:46:16;100815.97;;;2.29;100.00
73551;BME280;61816;53.582;10.096;2022-12-07T06:48:42;100807.84;;;2.31;100.00
73551;BME280;61816;53.582;10.096;2022-12-07T06:51:08;100810.69;;;2.40;100.00
73551;BME280;61816;53.582;10.096;2022-12-07T06:53:34;100805.03;;;2.58;100.00
73551;BME280;61816;53.582;10.096;2022-12-07T06:55:59;100805.69;;;2.49;100.00
73551;BME280;61816;53.582;10.096;2022-12-07T06:58:25;100807.53;;;2.48;100.00
73551;BME280;61816;53.582;10.096;2022-12-07T07:00:50;100817.00;;;2.39;100.00
73551;BME280;61816;53.582;10.096;2022-12-07T07:03:16;100811.25;;;2.45;100.00
73551;BME280;61816;53.582;10.096;2022-12-07T07:05:43;100811.03;;;2.49;100.00
73551;BME280;61816;53.582;10.096;2022-12-07T07:08:08;100806.13;;;2.55;100.00
73551;BME280;61816;53.582;10.096;2022-12-07T07:10:34;100808.88;;;2.54;100.00
73551;BME280;61816;53.582;10.096;2022-12-07T07:13:00;100818.94;;;2.37;100.00
73551;BME280;61816;53.582;10.096;2022-12-07T07:15:25;100816.91;;;2.41;100.00
73551;BME280;61816;53.582;10.096;2022-12-07T07:17:51;100809.78;;;2.41;100.00
73551;BME280;61816;53.582;10.096;2022-12-07T07:20:16;100814.88;;;2.44;100.00
73551;BME280;61816;53.582;10.096;2022-12-07T07:22:42;100813.59;;;2.37;100.00
73551;BME280;61816;53.582;10.096;2022-12-07T07:25:07;100809.94;;;2.64;100.00
73551;BME280;61816;53.582;10.096;2022-12-07T07:27:33;100807.81;;;2.69;100.00
73551;BME280;61816;53.582;10.096;2022-12-07T07:29:58;100805.34;;;2.40;100.00
73551;BME280;61816;53.582;10.096;2022-12-07T07:32:23;100804.84;;;2.35;100.00
73551;BME280;61816;53.582;10.096;2022-12-07T07:34:49;100815.31;;;2.38;100.00
73551;BME280;61816;53.582;10.096;2022-12-07T07:37:14;100817.88;;;2.27;100.00
73551;BME280;61816;53.582;10.096;2022-12-07T07:39:40;100818.94;;;2.50;100.00
73551;BME280;61816;53.582;10.096;2022-12-07T07:42:05;100819.56;;;2.41;100.00
73551;BME280;61816;53.582;10.096;2022-12-07T07:44:33;100839.16;;;2.41;100.00
73551;BME280;61816;53.582;10.096;2022-12-07T07:46:58;100835.84;;;2.51;100.00
73551;BME280;61816;53.582;10.096;2022-12-07T07:49:24;100833.34;;;2.60;100.00
73551;BME280;61816;53.582;10.096;2022-12-07T07:51:49;100829.81;;;2.60;100.00
73551;BME280;61816;53.582;10.096;2022-12-07T07:54:14;100841.72;;;2.56;100.00
73551;BME280;61816;53.582;10.096;2022-12-07T07:56:40;100842.44;;;2.58;100.00
73551;BME280;61816;53.582;10.096;2022-12-07T07:59:05;100833.25;;;2.62;100.00
73551;BME280;61816;53.582;10.096;2022-12-07T08:01:31;100839.03;;;2.56;100.00
73551;BME280;61816;53.582;10.096;2022-12-07T08:03:56;100831.88;;;2.56;100.00
73551;BME280;61816;53.582;10.096;2022-12-07T08:06:21;100827.91;;;2.62;100.00
73551;BME280;61816;53.582;10.096;2022-12-07T08:08:47;100828.66;;;2.64;100.00
73551;BME280;61816;53.582;10.096;2022-12-07T08:11:12;100833.25;;;2.62;100.00
73551;BME280;61816;53.582;10.096;2022-12-07T08:13:38;100838.38;;;2.65;100.00
73551;BME280;61816;53.582;10.096;2022-12-07T08:16:08;100830.91;;;2.44;100.00
73551;BME280;61816;53.582;10.096;2022-12-07T08:18:36;100838.19;;;2.68;100.00
73551;BME280;61816;53.582;10.096;2022-12-07T08:21:03;100833.03;;;2.65;100.00
73551;BME280;61816;53.582;10.096;2022-12-07T08:23:29;100828.31;;;2.81;100.00
73551;BME280;61816;53.582;10.096;2022-12-07T08:25:54;100841.56;;;2.95;100.00
73551;BME280;61816;53.582;10.096;2022-12-07T08:28:19;100832.16;;;2.77;100.00
73551;BME280;61816;53.582;10.096;2022-12-07T08:30:45;100837.22;;;3.06;100.00
73551;BME280;61816;53.582;10.096;2022-12-07T08:33:10;100833.16;;;3.13;100.00
73551;BME280;61816;53.582;10.096;2022-12-07T08:35:36;100827.59;;;3.16;100.00
73551;BME280;61816;53.582;10.096;2022-12-07T08:38:02;100829.72;;;3.11;100.00
73551;BME280;61816;53.582;10.096;2022-12-07T08:40:29;100833.28;;;2.98;100.00
73551;BME280;61816;53.582;10.096;2022-12-07T08:42:54;100828.72;;;3.01;100.00
73551;BME280;61816;53.582;10.096;2022-12-07T08:45:20;100842.00;;;2.89;100.00
73551;BME280;61816;53.582;10.096;2022-12-07T08:47:58;100834.88;;;3.14;100.00
73551;BME280;61816;53.582;10.096;2022-12-07T08:50:27;100832.94;;;3.16;100.00
73551;BME280;61816;53.582;10.096;2022-12-07T08:52:55;100834.31;;;3.21;100.00
73551;BME280;61816;53.582;10.096;2022-12-07T08:55:23;100831.34;;;3.37;100.00
73551;BME280;61816;53.582;10.096;2022-12-07T08:57:48;100831.06;;;3.29;100.00
73551;BME280;61816;53.582;10.096;2022-12-07T09:00:14;100835.25;;;3.33;100.00
73551;BME280;61816;53.582;10.096;2022-12-07T09:02:43;100825.78;;;3.40;100.00
73551;BME280;61816;53.582;10.096;2022-12-07T09:05:08;100836.50;;;3.40;100.00
73551;BME280;61816;53.582;10.096;2022-12-07T09:07:35;100842.34;;;3.21;100.00
73551;BME280;61816;53.582;10.096;2022-12-07T09:10:01;100839.59;;;3.10;100.00
73551;BME280;61816;53.582;10.096;2022-12-07T09:12:26;100843.59;;;3.29;100.00
73551;BME280;61816;53.582;10.096;2022-12-07T09:14:52;100841.94;;;3.15;100.00
73551;BME280;61816;53.582;10.096;2022-12-07T09:17:17;100844.44;;;3.29;100.00
73551;BME280;61816;53.582;10.096;2022-12-07T09:19:42;100832.84;;;3.41;100.00
73551;BME280;61816;53.582;10.096;2022-12-07T09:22:08;100836.31;;;3.54;100.00
73551;BME280;61816;53.582;10.096;2022-12-07T09:24:34;100838.81;;;3.69;100.00
73551;BME280;61816;53.582;10.096;2022-12-07T09:26:59;100836.38;;;3.66;100.00
73551;BME280;61816;53.582;10.096;2022-12-07T09:29:25;100844.91;;;3.71;100.00
73551;BME280;61816;53.582;10.096;2022-12-07T09:31:53;100838.53;;;3.61;100.00
73551;BME280;61816;53.582;10.096;2022-12-07T09:34:18;100841.03;;;3.75;100.00
73551;BME280;61816;53.582;10.096;2022-12-07T09:36:45;100841.22;;;3.61;100.00
73551;BME280;61816;53.582;10.096;2022-12-07T09:39:11;100846.41;;;3.75;100.00
73551;BME280;61816;53.582;10.096;2022-12-07T09:41:41;100835.63;;;3.64;100.00
73551;BME280;61816;53.582;10.096;2022-12-07T09:44:12;100851.59;;;3.65;100.00
73551;BME280;61816;53.582;10.096;2022-12-07T09:46:41;100824.97;;;3.75;100.00
73551;BME280;61816;53.582;10.096;2022-12-07T09:49:16;100841.91;;;3.75;100.00
73551;BME280;61816;53.582;10.096;2022-12-07T09:51:43;100838.31;;;3.64;100.00
73551;BME280;61816;53.582;10.096;2022-12-07T09:54:12;100834.66;;;3.65;100.00
73551;BME280;61816;53.582;10.096;2022-12-07T09:56:38;100829.09;;;3.68;100.00
73551;BME280;61816;53.582;10.096;2022-12-07T09:59:13;100837.38;;;3.76;100.00
73551;BME280;61816;53.582;10.096;2022-12-07T10:01:41;100828.94;;;3.93;100.00
73551;BME280;61816;53.582;10.096;2022-12-07T10:06:42;100824.19;;;3.97;100.00
73551;BME280;61816;53.582;10.096;2022-12-07T10:09:15;100831.97;;;3.89;100.00
73551;BME280;61816;53.582;10.096;2022-12-07T10:12:00;100825.69;;;3.77;100.00
73551;BME280;61816;53.582;10.096;2022-12-07T10:14:28;100827.91;;;3.83;100.00
73551;BME280;61816;53.582;10.096;2022-12-07T10:16:54;100821.50;;;3.86;100.00
73551;BME280;61816;53.582;10.096;2022-12-07T10:19:27;100826.31;;;4.04;100.00
73551;BME280;61816;53.582;10.096;2022-12-07T10:22:22;100819.09;;;3.94;100.00
73551;BME280;61816;53.582;10.096;2022-12-07T10:24:47;100824.34;;;4.06;100.00
73551;BME280;61816;53.582;10.096;2022-12-07T10:27:21;100813.16;;;4.13;100.00
73551;BME280;61816;53.582;10.096;2022-12-07T10:29:52;100819.72;;;4.08;100.00
73551;BME280;61816;53.582;10.096;2022-12-07T10:34:44;100820.72;;;4.30;100.00
73551;BME280;61816;53.582;10.096;2022-12-07T10:39:52;100822.88;;;4.02;100.00
73551;BME280;61816;53.582;10.096;2022-12-07T10:58:31;100815.22;;;4.09;100.00
73551;BME280;61816;53.582;10.096;2022-12-07T11:15:33;100797.78;;;4.03;100.00
73551;BME280;61816;53.582;10.096;2022-12-07T11:21:09;100794.91;;;4.18;100.00
73551;BME280;61816;53.582;10.096;2022-12-07T11:24:01;100798.31;;;4.20;99.47
73551;BME280;61816;53.582;10.096;2022-12-07T11:31:51;100785.38;;;4.02;100.00
73551;BME280;61816;53.582;10.096;2022-12-07T11:34:37;100792.44;;;4.03;99.48
73551;BME280;61816;53.582;10.096;2022-12-07T11:37:10;100788.56;;;4.07;99.27
73551;BME280;61816;53.582;10.096;2022-12-07T11:39:46;100787.53;;;3.97;98.39
73551;BME280;61816;53.582;10.096;2022-12-07T11:42:21;100783.94;;;4.21;97.49
73551;BME280;61816;53.582;10.096;2022-12-07T11:50:26;100784.91;;;4.08;97.09
73551;BME280;61816;53.582;10.096;2022-12-07T11:55:53;100772.75;;;4.27;95.69
73551;BME280;61816;53.582;10.096;2022-12-07T12:06:37;100771.78;;;4.39;93.16
73551;BME280;61816;53.582;10.096;2022-12-07T12:09:21;100754.72;;;4.29;92.91
73551;BME280;61816;53.582;10.096;2022-12-07T12:12:21;100776.31;;;4.39;92.31
73551;BME280;61816;53.582;10.096;2022-12-07T12:15:03;100760.59;;;4.45;92.03
73551;BME280;61816;53.582;10.096;2022-12-07T12:17:59;100772.03;;;4.58;91.33
73551;BME280;61816;53.582;10.096;2022-12-07T12:20:51;100767.13;;;4.75;89.52
73551;BME280;61816;53.582;10.096;2022-12-07T12:23:45;100762.25;;;4.69;88.48
73551;BME280;61816;53.582;10.096;2022-12-07T12:26:19;100765.19;;;4.54;89.20
73551;BME280;61816;53.582;10.096;2022-12-07T12:28:51;100758.28;;;4.63;89.14
73551;BME280;61816;53.582;10.096;2022-12-07T12:33:52;100759.38;;;4.38;88.13
73551;BME280;61816;53.582;10.096;2022-12-07T12:46:59;100754.25;;;4.57;85.93
73551;BME280;61816;53.582;10.096;2022-12-07T12:52:45;100759.84;;;4.77;86.16
73551;BME280;61816;53.582;10.096;2022-12-07T12:55:00;100763.72;;;4.61;86.02
73551;BME280;61816;53.582;10.096;2022-12-07T12:57:29;100765.44;;;4.74;85.44
73551;BME280;61816;53.582;10.096;2022-12-07T13:02:24;100765.19;;;4.77;84.20
73551;BME280;61816;53.582;10.096;2022-12-07T13:04:55;100756.28;;;4.87;84.32
73551;BME280;61816;53.582;10.096;2022-12-07T13:21:47;100761.53;;;4.89;79.87
73551;BME280;61816;53.582;10.096;2022-12-07T13:26:36;100766.41;;;4.61;79.20
73551;BME280;61816;53.582;10.096;2022-12-07T13:29:15;100758.38;;;4.73;78.17
73551;BME280;61816;53.582;10.096;2022-12-07T13:34:30;100767.13;;;4.75;78.18
73551;BME280;61816;53.582;10.096;2022-12-07T13:36:56;100764.34;;;4.76;77.40
73551;BME280;61816;53.582;10.096;2022-12-07T13:39:23;100769.59;;;4.67;78.20
73551;BME280;61816;53.582;10.096;2022-12-07T13:41:57;100769.59;;;4.55;77.19
73551;BME280;61816;53.582;10.096;2022-12-07T13:44:27;100781.78;;;4.59;78.55
73551;BME280;61816;53.582;10.096;2022-12-07T13:47:07;100767.88;;;4.43;76.89
73551;BME280;61816;53.582;10.096;2022-12-07T13:49:46;100769.84;;;4.52;77.24
73551;BME280;61816;53.582;10.096;2022-12-07T13:54:47;100771.78;;;4.39;77.24
73551;BME280;61816;53.582;10.096;2022-12-07T13:57:14;100781.19;;;4.45;76.86
73551;BME280;61816;53.582;10.096;2022-12-07T13:59:40;100778.59;;;4.43;77.25
73551;BME280;61816;53.582;10.096;2022-12-07T14:07:59;100778.59;;;4.21;77.15
73551;BME280;61816;53.582;10.096;2022-12-07T14:10:33;100772.28;;;4.33;77.47
73551;BME280;61816;53.582;10.096;2022-12-07T14:13:00;100773.69;;;4.15;77.26
73551;BME280;61816;53.582;10.096;2022-12-07T14:15:29;100767.50;;;4.36;77.70
73551;BME280;61816;53.582;10.096;2022-12-07T14:17:56;100757.66;;;4.37;77.60
73551;BME280;61816;53.582;10.096;2022-12-07T14:20:39;100755.22;;;4.34;76.62
73551;BME280;61816;53.582;10.096;2022-12-07T14:23:19;100761.50;;;4.11;75.03
73551;BME280;61816;53.582;10.096;2022-12-07T14:25:47;100757.97;;;3.99;75.34
73551;BME280;61816;53.582;10.096;2022-12-07T14:28:34;100766.75;;;4.01;74.61
73551;BME280;61816;53.582;10.096;2022-12-07T14:31:00;100773.19;;;3.98;75.51
73551;BME280;61816;53.582;10.096;2022-12-07T14:33:26;100780.84;;;4.03;75.31
73551;BME280;61816;53.582;10.096;2022-12-07T14:35:52;100773.44;;;4.06;75.22
73551;BME280;61816;53.582;10.096;2022-12-07T14:38:21;100768.56;;;4.00;74.90
73551;BME280;61816;53.582;10.096;2022-12-07T14:40:47;100777.31;;;3.91;75.55
73551;BME280;61816;53.582;10.096;2022-12-07T14:43:15;100776.31;;;3.81;75.34
73551;BME280;61816;53.582;10.096;2022-12-07T14:45:41;100779.19;;;3.67;75.58
73551;BME280;61816;53.582;10.096;2022-12-07T14:48:14;100781.41;;;3.84;75.07
73551;BME280;61816;53.582;10.096;2022-12-07T14:50:51;100777.03;;;3.72;75.83
73551;BME280;61816;53.582;10.096;2022-12-07T14:53:21;100779.66;;;3.61;76.60
73551;BME280;61816;53.582;10.096;2022-12-07T14:55:50;100771.34;;;3.52;76.86
73551;BME280;61816;53.582;10.096;2022-12-07T14:58:17;100772.81;;;3.57;76.50
73551;BME280;61816;53.582;10.096;2022-12-07T15:00:43;100774.25;;;3.49;77.33
73551;BME280;61816;53.582;10.096;2022-12-07T15:03:09;100777.81;;;3.61;77.07